Aviation Digital Data Service (ADDS)

Output produced by TAFs form (0048 UTC 06 December 2016)
found at http://www.aviationweather.gov/adds/tafs/
 
KPSF 052334Z 0600/0624 27008KT P6SM BKN025 
     FM060600 29005KT P6SM BKN015 
     FM060900 VRB03KT P6SM BKN009 
     FM061400 32003KT P6SM SCT035 BKN200 
     FM062200 12003KT P6SM OVC100